Time;durP1;ratioP1;P1;durP2;ratioP2;P2;SDS_P1;SDS_P2;PMS_P1;PMS_P2;Temp;Humidity;BMP_temperature;BMP_pressure;BME280_temperature;BME280_humidity;BME280_pressure;Samples;Min_cycle;Max_cycle;Signal;HPM_P1;HPM_P2
2022/03/23 00:01:53;;;;;;;14.57;7.07;;;;;;;7.09;55.51;102907.22;5014232;28;20068;-81
2022/03/23 00:04:19;;;;;;;15.10;7.32;;;;;;;7.09;55.41;102918.41;5013573;28;20026;-81
2022/03/23 00:06:44;;;;;;;15.30;7.10;;;;;;;7.05;55.21;102908.78;5013283;28;20033;-81
2022/03/23 00:09:09;;;;;;;18.13;8.00;;;;;;;7.04;55.46;102912.19;5014060;28;20026;-81
2022/03/23 00:11:35;;;;;;;16.00;7.67;;;;;;;7.00;55.44;102912.03;5013538;28;20079;-81
2022/03/23 00:14:00;;;;;;;17.97;8.10;;;;;;;6.94;56.23;102911.03;5013335;28;20038;-81
2022/03/23 00:16:26;;;;;;;17.60;7.95;;;;;;;6.92;55.77;102910.09;5012757;28;20034;-81
2022/03/23 00:18:51;;;;;;;17.88;8.15;;;;;;;6.90;55.66;102913.47;5013599;28;20108;-81
2022/03/23 00:21:16;;;;;;;16.57;7.57;;;;;;;6.87;55.64;102910.78;5012905;28;20029;-80
2022/03/23 00:23:42;;;;;;;17.97;8.27;;;;;;;6.82;55.80;102909.72;5030663;28;20033;-81
2022/03/23 00:26:07;;;;;;;19.13;8.10;;;;;;;6.79;55.93;102918.25;5033225;28;20049;-81
2022/03/23 00:28:33;;;;;;;18.33;8.18;;;;;;;6.74;56.73;102912.06;5032280;28;20104;-81
2022/03/23 00:30:59;;;;;;;17.55;7.80;;;;;;;6.66;56.43;102916.97;5033371;28;20040;-81
2022/03/23 00:33:24;;;;;;;17.37;7.93;;;;;;;6.59;56.12;102921.03;5032862;28;20025;-81
2022/03/23 00:35:49;;;;;;;17.55;7.90;;;;;;;6.56;56.48;102920.06;5032811;28;20029;-81
2022/03/23 00:38:16;;;;;;;19.83;8.50;;;;;;;6.54;56.87;102925.16;5033635;28;20392;-81
2022/03/23 00:40:44;;;;;;;15.50;7.50;;;;;;;6.51;56.72;102924.16;5033202;28;20041;-81
2022/03/23 00:43:10;;;;;;;16.23;7.50;;;;;;;6.47;57.21;102923.19;5031728;28;20030;-81
2022/03/23 00:45:36;;;;;;;16.15;7.78;;;;;;;6.39;58.35;102924.63;5031710;28;20037;-81
2022/03/23 00:48:02;;;;;;;16.60;7.30;;;;;;;6.32;57.17;102921.81;5032868;28;20032;-81
2022/03/23 00:50:27;;;;;;;15.35;6.97;;;;;;;6.25;58.05;102926.72;5044398;28;20075;-80
2022/03/23 00:52:52;;;;;;;16.00;6.93;;;;;;;6.20;57.76;102926.53;5038020;28;20102;-81
2022/03/23 00:55:18;;;;;;;15.87;6.97;;;;;;;6.16;57.42;102922.94;5032823;28;20037;-81
2022/03/23 00:57:44;;;;;;;16.77;7.80;;;;;;;6.15;57.48;102926.34;5028233;28;20026;-81
2022/03/23 01:00:16;;;;;;;14.68;7.18;;;;;;;6.14;57.86;102926.31;5013489;28;20030;-81
2022/03/23 01:02:43;;;;;;;17.05;7.43;;;;;;;6.14;57.94;102916.00;5012961;28;20079;-81
2022/03/23 01:05:09;;;;;;;16.13;7.55;;;;;;;6.13;57.66;102921.97;5012753;28;20022;-81
2022/03/23 01:07:36;;;;;;;16.98;7.75;;;;;;;6.10;57.61;102917.59;5012814;28;20034;-80
2022/03/23 01:10:01;;;;;;;17.40;7.35;;;;;;;6.08;58.10;102905.47;5012694;28;20061;-80
2022/03/23 01:12:27;;;;;;;16.42;7.72;;;;;;;6.07;57.94;102914.03;5012849;28;20056;-81
2022/03/23 01:14:52;;;;;;;19.38;8.15;;;;;;;6.03;58.62;102916.47;5016082;28;20109;-81
2022/03/23 01:17:18;;;;;;;16.05;7.50;;;;;;;5.97;59.06;102917.91;5032190;28;20117;-81
2022/03/23 01:19:43;;;;;;;16.57;7.37;;;;;;;5.91;58.71;102913.41;5032498;28;20021;-81
2022/03/23 01:22:09;;;;;;;15.77;7.35;;;;;;;5.87;58.36;102904.69;5032659;28;20087;-81
2022/03/23 01:24:34;;;;;;;16.20;7.30;;;;;;;5.83;58.34;102904.53;5031779;28;20038;-81
2022/03/23 01:27:01;;;;;;;15.93;7.80;;;;;;;5.81;59.28;102907.03;5032300;28;20108;-82
2022/03/23 01:29:27;;;;;;;17.40;7.80;;;;;;;5.80;58.46;102907.84;5035520;28;20108;-81
2022/03/23 01:31:52;;;;;;;17.58;7.85;;;;;;;5.77;59.12;102904.28;5036325;28;20042;-81
2022/03/23 01:34:17;;;;;;;16.52;7.60;;;;;;;5.72;59.26;102898.94;5035715;28;20083;-81
2022/03/23 01:36:42;;;;;;;18.27;7.72;;;;;;;5.70;58.79;102903.16;5036360;28;20462;-81
2022/03/23 01:39:08;;;;;;;16.73;8.00;;;;;;;5.66;59.21;102891.88;5036191;28;20033;-81
2022/03/23 01:41:38;;;;;;;16.75;7.70;;;;;;;5.63;59.10;102891.75;5036209;28;20097;-81
2022/03/23 01:44:13;;;;;;;19.23;8.30;;;;;;;5.60;59.32;102899.38;5036194;28;20025;-81
2022/03/23 01:47:10;;;;;;;16.73;7.95;;;;;;;5.55;59.25;102890.56;5035304;28;20029;-81
2022/03/23 01:49:41;;;;;;;17.98;7.88;;;;;;;5.52;59.46;102890.44;5035948;28;20083;-81
2022/03/23 01:52:09;;;;;;;18.80;8.63;;;;;;;5.49;59.42;102892.94;5035655;28;20049;-81
2022/03/23 01:54:36;;;;;;;18.55;8.38;;;;;;;5.47;59.62;102889.41;5030657;28;20040;-81
2022/03/23 01:57:03;;;;;;;16.25;8.18;;;;;;;5.40;59.62;102889.16;5016093;28;20109;-81
2022/03/23 01:59:28;;;;;;;17.45;7.85;;;;;;;5.34;60.02;102888.06;5015433;28;20117;-81
2022/03/23 02:01:54;;;;;;;19.45;8.55;;;;;;;5.29;59.51;102884.41;5016407;28;20053;-81
2022/03/23 02:04:21;;;;;;;17.38;8.05;;;;;;;5.25;60.10;102886.84;5015633;28;20445;-81
2022/03/23 02:06:48;;;;;;;16.58;7.93;;;;;;;5.21;60.22;102890.16;5015800;28;20096;-81
2022/03/23 02:09:14;;;;;;;18.92;8.13;;;;;;;5.16;60.02;102877.91;5016306;28;20105;-81
2022/03/23 02:11:41;;;;;;;18.35;8.50;;;;;;;5.13;60.13;102883.78;5015587;28;20061;-81
2022/03/23 02:14:06;;;;;;;16.85;8.15;;;;;;;5.10;60.46;102881.97;5015805;28;20030;-81
2022/03/23 02:16:38;;;;;;;18.15;8.05;;;;;;;5.05;60.34;102883.50;5015854;28;20140;-81
2022/03/23 02:19:04;;;;;;;17.83;8.00;;;;;;;5.00;60.56;102879.84;5015856;28;20398;-81
2022/03/23 02:21:30;;;;;;;18.50;8.32;;;;;;;4.97;60.52;102881.44;5015173;28;20030;-81
2022/03/23 02:23:55;;;;;;;18.45;8.50;;;;;;;4.92;60.52;102876.97;5015948;28;20057;-81
2022/03/23 02:26:21;;;;;;;17.70;8.10;;;;;;;4.90;61.10;102885.44;5014879;28;20436;-81
2022/03/23 02:28:47;;;;;;;17.27;7.70;;;;;;;4.86;60.90;102880.97;5015484;28;20049;-81
2022/03/23 02:31:12;;;;;;;18.92;8.52;;;;;;;4.85;60.93;102884.38;5015958;28;20470;-81
2022/03/23 02:33:38;;;;;;;18.55;8.38;;;;;;;4.82;61.19;102874.84;5026378;28;20025;-81
2022/03/23 02:36:03;;;;;;;18.40;8.25;;;;;;;4.78;61.03;102878.97;5034770;28;20045;-81
2022/03/23 02:38:29;;;;;;;17.83;8.10;;;;;;;4.76;61.19;102882.31;5035157;28;20033;-81
2022/03/23 02:40:54;;;;;;;17.20;8.13;;;;;;;4.73;60.94;102883.03;5034296;28;20017;-81
2022/03/23 02:43:19;;;;;;;17.10;7.97;;;;;;;4.67;61.18;102880.22;5034004;28;20478;-81
2022/03/23 02:45:44;;;;;;;18.08;8.05;;;;;;;4.64;61.35;102882.66;5035148;28;20033;-81
2022/03/23 02:48:10;;;;;;;17.38;7.97;;;;;;;4.61;61.38;102882.56;5035209;28;20041;-81
2022/03/23 02:50:35;;;;;;;18.60;8.63;;;;;;;4.57;61.46;102878.09;5034399;28;20037;-81
2022/03/23 03:04:16;;;;;;;16.63;7.38;;;;;;;4.35;62.52;102883.97;5014848;28;20101;-80
2022/03/23 03:06:42;;;;;;;16.80;7.65;;;;;;;4.29;62.13;102884.59;5015144;28;20462;-81
2022/03/23 03:09:07;;;;;;;17.13;7.75;;;;;;;4.25;62.51;102887.88;5015115;28;20057;-81
2022/03/23 03:11:32;;;;;;;16.00;7.25;;;;;;;4.20;62.38;102885.09;5014232;28;20022;-80
2022/03/23 03:13:58;;;;;;;17.25;7.70;;;;;;;4.17;62.82;102888.38;5014597;28;20040;-80
2022/03/23 03:16:23;;;;;;;16.88;7.28;;;;;;;4.16;62.65;102889.22;5013942;28;20025;-81
2022/03/23 03:18:48;;;;;;;17.60;7.93;;;;;;;4.11;62.61;102890.69;5015019;28;20076;-81
2022/03/23 03:21:15;;;;;;;17.42;7.95;;;;;;;4.10;63.02;102890.63;5014403;28;20104;-81
2022/03/23 03:23:42;;;;;;;17.03;7.70;;;;;;;4.08;62.82;102894.81;5014289;28;20072;-81
2022/03/23 03:26:09;;;;;;;16.95;7.72;;;;;;;4.09;63.03;102894.88;5014779;28;20292;-81
2022/03/23 03:28:36;;;;;;;17.60;7.60;;;;;;;4.07;63.14;102904.22;5014219;28;20032;-81
2022/03/23 03:31:03;;;;;;;16.50;7.40;;;;;;;4.03;62.91;102902.34;5014095;28;20028;-81
2022/03/23 03:33:29;;;;;;;17.23;8.00;;;;;;;4.01;62.94;102904.81;5018780;28;20025;-81
2022/03/23 03:35:54;;;;;;;16.33;7.47;;;;;;;4.00;63.42;102907.31;5034261;28;20535;-81
2022/03/23 03:38:19;;;;;;;17.15;7.68;;;;;;;3.97;63.38;102902.94;5033481;28;20029;-80
2022/03/23 03:40:45;;;;;;;17.55;7.88;;;;;;;3.96;63.20;102901.19;5034308;28;20450;-81
2022/03/23 03:43:11;;;;;;;16.58;7.65;;;;;;;3.95;63.32;102893.38;5033966;28;20025;-81
2022/03/23 03:45:36;;;;;;;16.48;7.35;;;;;;;3.93;63.91;102898.47;5033315;28;20037;-81
2022/03/23 03:48:01;;;;;;;15.82;7.03;;;;;;;3.92;63.70;102895.84;5034043;28;20021;-81
2022/03/23 03:50:26;;;;;;;17.92;7.75;;;;;;;3.90;63.77;102900.00;5033766;28;20064;-80
2022/03/23 03:52:52;;;;;;;17.15;7.80;;;;;;;3.89;63.30;102899.13;5032498;28;20081;-81
2022/03/23 03:55:17;;;;;;;17.13;7.55;;;;;;;3.89;63.54;102900.81;5023469;28;20037;-80
2022/03/23 03:57:42;;;;;;;17.08;7.20;;;;;;;3.88;63.55;102899.06;5013738;28;20382;-81
2022/03/23 04:00:08;;;;;;;16.33;7.07;;;;;;;3.85;63.46;102897.25;5013412;28;20038;-81
2022/03/23 04:02:33;;;;;;;16.80;7.57;;;;;;;3.83;64.10;102896.28;5013837;28;20080;-81
2022/03/23 04:04:58;;;;;;;16.65;7.53;;;;;;;3.80;64.07;102893.56;5013750;28;20030;-81
2022/03/23 04:07:23;;;;;;;16.48;6.75;;;;;;;3.77;67.61;102896.00;5013210;28;20097;-80
2022/03/23 04:09:49;;;;;;;17.17;7.43;;;;;;;3.74;64.80;102893.31;5014100;28;20394;-81
2022/03/23 04:12:14;;;;;;;16.25;7.40;;;;;;;3.73;64.48;102901.81;5029272;28;20041;-81
2022/03/23 04:14:39;;;;;;;16.65;7.30;;;;;;;3.71;64.32;102894.03;5031201;28;20033;-81
2022/03/23 04:17:05;;;;;;;18.02;7.80;;;;;;;3.72;64.18;102903.47;5033126;28;20501;-81
2022/03/23 04:19:30;;;;;;;17.05;7.53;;;;;;;3.73;64.53;102905.25;5033388;28;20083;-81
2022/03/23 04:21:55;;;;;;;16.15;7.60;;;;;;;3.70;66.65;102900.00;5032978;28;20065;-81
2022/03/23 04:24:20;;;;;;;17.42;7.32;;;;;;;3.70;64.96;102903.41;5032559;28;20037;-80
2022/03/23 04:26:46;;;;;;;17.00;7.38;;;;;;;3.69;65.15;102903.38;5032671;28;20069;-81
2022/03/23 04:29:11;;;;;;;15.82;6.88;;;;;;;3.70;64.64;102900.00;5033291;28;20032;-81
2022/03/23 04:31:37;;;;;;;17.15;7.53;;;;;;;3.66;66.49;102900.63;5032942;28;20025;-81
2022/03/23 04:34:02;;;;;;;16.33;7.15;;;;;;;3.65;66.48;102901.44;5032893;28;20026;-81
2022/03/23 04:36:28;;;;;;;17.88;7.10;;;;;;;3.61;65.68;102902.09;5033129;28;20143;-80
2022/03/23 04:38:53;;;;;;;16.75;7.70;;;;;;;3.59;64.73;102902.03;5032887;28;20017;-81
2022/03/23 04:41:19;;;;;;;18.15;8.20;;;;;;;3.57;64.71;102905.34;5032416;28;20091;-81
2022/03/23 04:43:44;;;;;;;18.85;8.48;;;;;;;3.54;64.88;102912.09;5033016;28;20028;-81
2022/03/23 04:46:10;;;;;;;17.65;8.27;;;;;;;3.53;64.38;102904.34;5032653;28;20021;-81
2022/03/23 04:48:35;;;;;;;18.17;7.80;;;;;;;3.50;64.55;102912.75;5032401;28;20033;-81
2022/03/23 04:51:04;;;;;;;17.90;8.15;;;;;;;3.48;64.82;102913.50;5014158;28;20034;-81
2022/03/23 04:53:29;;;;;;;18.17;8.10;;;;;;;3.45;64.91;102913.34;5012412;28;20564;-81
2022/03/23 04:55:54;;;;;;;18.55;8.30;;;;;;;3.40;64.95;102910.56;5012744;28;20029;-81
2022/03/23 04:58:20;;;;;;;18.15;7.97;;;;;;;3.39;65.03;102916.50;5012745;28;20054;-81
2022/03/23 05:00:45;;;;;;;17.42;7.57;;;;;;;3.35;64.79;102912.03;5013210;28;20096;-81
2022/03/23 05:03:13;;;;;;;18.13;8.30;;;;;;;3.34;64.66;102912.84;5012581;28;20010;-81
2022/03/23 05:05:39;;;;;;;17.92;8.02;;;;;;;3.33;64.93;102917.09;5012790;28;20095;-81
2022/03/23 05:08:05;;;;;;;19.70;9.25;;;;;;;3.32;64.75;102914.44;5012907;28;20053;-81
2022/03/23 05:10:30;;;;;;;19.10;8.95;;;;;;;3.30;65.08;102916.97;5012232;28;20068;-81
2022/03/23 05:12:55;;;;;;;18.98;8.63;;;;;;;3.26;65.13;102919.31;5012931;28;20053;-81
2022/03/23 05:15:21;;;;;;;18.98;8.80;;;;;;;3.22;64.71;102919.16;5012366;28;20037;-81
2022/03/23 05:17:46;;;;;;;19.92;9.23;;;;;;;3.19;64.92;102919.00;5012524;28;20102;-81
2022/03/23 05:20:14;;;;;;;19.70;8.45;;;;;;;3.17;65.01;102930.00;5012809;28;20026;-81
2022/03/23 05:22:39;;;;;;;18.13;8.25;;;;;;;3.15;65.22;102935.06;5012854;28;20033;-80
2022/03/23 05:25:05;;;;;;;19.13;8.55;;;;;;;3.12;65.41;102934.91;5012404;28;20489;-80
2022/03/23 05:27:35;;;;;;;20.13;9.02;;;;;;;3.07;65.27;102932.09;5012387;28;20030;-81
2022/03/23 05:30:02;;;;;;;19.75;8.82;;;;;;;3.04;65.36;102926.81;5011999;28;20097;-80
2022/03/23 05:32:28;;;;;;;19.90;9.07;;;;;;;3.01;65.49;102933.50;5012717;28;20065;-81
2022/03/23 05:34:53;;;;;;;18.45;8.35;;;;;;;2.94;66.14;102935.72;5012488;28;20053;-81
2022/03/23 05:37:18;;;;;;;20.02;8.95;;;;;;;2.88;65.87;102939.66;5011986;28;20034;-81
2022/03/23 05:39:45;;;;;;;20.05;9.25;;;;;;;2.77;67.84;102936.59;5012923;28;20116;-81
2022/03/23 05:42:11;;;;;;;19.75;9.35;;;;;;;2.67;70.62;102944.59;5012428;28;20137;-81
2022/03/23 05:44:36;;;;;;;20.00;8.93;;;;;;;2.62;66.90;102952.94;5012724;28;20057;-81
2022/03/23 05:47:04;;;;;;;20.10;9.48;;;;;;;2.60;66.72;102948.53;5012614;28;20069;-81
2022/03/23 05:49:29;;;;;;;20.20;9.15;;;;;;;2.60;66.72;102951.97;5012350;28;20026;-81
2022/03/23 05:51:54;;;;;;;19.58;8.73;;;;;;;2.60;66.03;102946.84;5011935;28;20053;-81
2022/03/23 05:54:23;;;;;;;20.23;9.02;;;;;;;2.66;66.64;102945.41;5012501;28;20076;-81
2022/03/23 05:56:48;;;;;;;19.80;9.07;;;;;;;2.68;66.67;102948.94;5012324;28;20034;-81
2022/03/23 05:59:14;;;;;;;19.67;8.68;;;;;;;2.70;66.89;102953.34;5011985;28;20025;-81
2022/03/23 06:01:39;;;;;;;17.77;8.27;;;;;;;2.72;66.85;102959.44;5012438;28;20046;-81
2022/03/23 06:04:04;;;;;;;20.27;9.23;;;;;;;2.73;66.29;102956.06;5012045;28;20536;-80
2022/03/23 06:06:30;;;;;;;19.02;8.57;;;;;;;2.76;66.35;102958.75;5012055;28;20041;-81
2022/03/23 06:08:55;;;;;;;19.75;8.80;;;;;;;2.81;66.45;102961.59;5012798;28;20073;-81
2022/03/23 06:11:21;;;;;;;19.35;8.35;;;;;;;2.84;66.67;102960.84;5011856;28;20053;-81
2022/03/23 06:13:46;;;;;;;19.52;8.77;;;;;;;2.86;66.60;102957.56;5025706;28;20038;-81
2022/03/23 06:16:11;;;;;;;19.50;8.57;;;;;;;2.87;66.11;102954.19;5034843;28;20065;-80
2022/03/23 06:18:37;;;;;;;19.08;8.80;;;;;;;2.92;65.89;102954.41;5035227;28;20025;-81
2022/03/23 06:21:04;;;;;;;20.55;9.00;;;;;;;2.97;66.30;102964.91;5035284;28;20465;-81
2022/03/23 06:23:30;;;;;;;18.40;8.63;;;;;;;3.00;66.15;102962.50;5035121;28;20037;-80
2022/03/23 06:25:55;;;;;;;20.00;9.00;;;;;;;3.03;65.92;102962.66;5035440;28;20111;-81
2022/03/23 06:28:21;;;;;;;19.40;9.18;;;;;;;3.09;66.01;102968.09;5034953;28;20284;-81
2022/03/23 06:30:47;;;;;;;20.17;9.27;;;;;;;3.13;66.58;102964.88;5035478;28;20087;-80
2022/03/23 06:33:12;;;;;;;18.35;8.05;;;;;;;3.15;66.49;102970.97;5035514;28;20033;-81
2022/03/23 06:35:37;;;;;;;17.42;7.75;;;;;;;3.18;66.95;102958.28;5034824;28;20056;-81
2022/03/23 06:38:04;;;;;;;18.27;7.43;;;;;;;3.24;66.42;102966.31;5034927;28;20033;-81
2022/03/23 06:40:29;;;;;;;18.13;7.70;;;;;;;3.27;67.27;102963.00;5032708;28;20025;-81
2022/03/23 06:42:54;;;;;;;14.95;6.70;;;;;;;3.36;67.95;102970.28;5035177;28;20052;-81
2022/03/23 06:45:22;;;;;;;12.77;5.60;;;;;;;3.42;67.76;102974.81;5033074;28;20033;-80
2022/03/23 06:47:47;;;;;;;12.35;5.30;;;;;;;3.49;67.83;102975.16;5018312;28;20034;-81
2022/03/23 06:50:18;;;;;;;12.57;4.90;;;;;;;3.57;68.38;102980.69;5023877;28;20030;-81
2022/03/23 06:52:46;;;;;;;10.95;4.70;;;;;;;4.04;67.84;102970.91;5015381;28;20082;-80
2022/03/23 06:55:12;;;;;;;10.63;4.82;;;;;;;5.85;67.85;102975.03;5015052;28;20084;-79
2022/03/23 06:57:37;;;;;;;9.52;4.47;;;;;;;8.26;66.09;102966.72;5015226;28;20026;-80
2022/03/23 07:00:12;;;;;;;7.85;4.10;;;;;;;10.51;62.56;102974.69;5015102;28;20032;-82
2022/03/23 07:02:46;;;;;;;8.45;4.10;;;;;;;12.46;58.89;102977.63;5014507;28;20034;-79
2022/03/23 07:05:15;;;;;;;9.35;4.75;;;;;;;14.02;51.61;102972.78;5014090;28;20037;-79
2022/03/23 07:09:31;;;;;;;14.98;6.40;;;;;;;15.21;48.19;102979.13;5014750;28;20061;-79
2022/03/23 07:10:30;;;;;;;15.60;7.20;;;;;;;16.13;45.94;102983.28;5014134;28;20073;-79
2022/03/23 07:12:56;;;;;;;16.02;7.25;;;;;;;16.61;44.77;102985.63;5014941;28;20367;-79
2022/03/23 07:15:22;;;;;;;19.17;8.10;;;;;;;16.61;44.23;102987.41;5014975;28;20174;-79
2022/03/23 07:17:47;;;;;;;16.67;8.10;;;;;;;16.07;43.94;102991.19;5014443;28;20101;-79
2022/03/23 07:20:12;;;;;;;17.80;8.53;;;;;;;15.01;45.49;102986.97;5014336;28;20026;-79
2022/03/23 07:22:37;;;;;;;19.50;9.23;;;;;;;13.69;47.10;102989.09;5013941;28;20490;-80
2022/03/23 07:25:03;;;;;;;18.97;9.40;;;;;;;12.38;47.32;102994.03;5014531;28;20030;-80
2022/03/23 07:27:29;;;;;;;21.10;11.10;;;;;;;11.22;47.23;102999.31;5014053;28;20037;-79
2022/03/23 07:29:54;;;;;;;27.53;16.07;;;;;;;10.17;49.10;103005.09;5014246;28;20026;-80
2022/03/23 07:32:19;;;;;;;28.10;17.13;;;;;;;9.34;50.48;102994.63;5014357;28;20037;-80
2022/03/23 07:34:45;;;;;;;25.07;15.70;;;;;;;8.81;52.32;103003.63;5014565;28;20609;-79
2022/03/23 07:37:10;;;;;;;24.73;14.20;;;;;;;8.46;53.63;103015.56;5014239;28;20045;-79
2022/03/23 07:39:36;;;;;;;25.07;15.27;;;;;;;8.13;54.82;103006.00;5014138;28;20493;-77
2022/03/23 07:42:02;;;;;;;30.48;19.27;;;;;;;7.83;56.00;103011.97;5023203;28;20037;-78
2022/03/23 07:44:30;;;;;;;28.60;16.67;;;;;;;7.61;56.65;103007.84;5008427;28;20018;-78
2022/03/23 07:46:55;;;;;;;29.90;19.25;;;;;;;7.41;57.59;103005.53;5012568;28;20045;-81
2022/03/23 07:49:20;;;;;;;27.63;16.93;;;;;;;7.39;57.01;103004.59;5016733;28;20225;-82
2022/03/23 07:51:49;;;;;;;28.83;18.60;;;;;;;7.30;57.58;103010.31;5033209;28;20081;-81
2022/03/23 07:54:14;;;;;;;31.02;19.17;;;;;;;7.24;57.23;103005.81;5009113;28;20505;-82
2022/03/23 07:56:39;;;;;;;33.90;22.23;;;;;;;7.22;57.71;103012.63;5011330;28;20025;-81
2022/03/23 07:59:05;;;;;;;30.48;19.77;;;;;;;7.25;58.81;103017.06;5017307;28;20501;-83
2022/03/23 08:01:31;;;;;;;33.45;21.30;;;;;;;7.24;60.05;103012.72;5006258;28;20056;-82
2022/03/23 08:03:56;;;;;;;32.70;22.13;;;;;;;7.25;59.83;103017.91;5013690;28;20057;-83
2022/03/23 08:06:21;;;;;;;33.38;22.23;;;;;;;7.31;60.20;103030.16;5007811;28;20030;-83
2022/03/23 08:08:46;;;;;;;30.97;20.67;;;;;;;7.34;59.69;103022.53;5012226;28;20061;-82
2022/03/23 08:11:12;;;;;;;31.90;20.27;;;;;;;7.43;59.89;103019.34;5013713;28;20018;-83
2022/03/23 08:13:37;;;;;;;36.03;24.93;;;;;;;7.48;59.86;103016.94;5014227;28;20026;-83
2022/03/23 08:16:04;;;;;;;34.77;23.20;;;;;;;7.60;59.86;103016.44;5033158;28;20028;-83
2022/03/23 08:18:29;;;;;;;33.55;21.77;;;;;;;7.70;58.86;103021.06;5030024;28;20033;-83
2022/03/23 08:20:55;;;;;;;29.02;18.48;;;;;;;7.78;58.74;103016.16;5011975;28;20359;-83
2022/03/23 08:23:20;;;;;;;27.13;17.17;;;;;;;7.91;58.43;103017.38;5013422;28;20113;-84
2022/03/23 08:25:49;;;;;;;25.07;15.60;;;;;;;8.06;58.31;103010.13;5013232;28;20402;-86
2022/03/23 08:28:17;;;;;;;25.85;15.15;;;;;;;8.22;58.31;103021.78;5013911;28;20037;-86
2022/03/23 08:30:44;;;;;;;23.25;13.20;;;;;;;8.39;57.98;103019.69;5013527;28;20092;-83
2022/03/23 08:33:10;;;;;;;21.25;11.73;;;;;;;8.52;57.06;103012.31;5012984;28;20133;-86
2022/03/23 08:35:36;;;;;;;26.17;15.93;;;;;;;8.65;56.69;103020.47;5016976;28;20464;-86
2022/03/23 08:38:01;;;;;;;26.07;15.63;;;;;;;8.78;56.56;103021.66;5031402;28;20117;-82
2022/03/23 08:40:27;;;;;;;25.13;14.83;;;;;;;8.91;56.58;103016.81;5016803;28;20025;-83
2022/03/23 08:42:52;;;;;;;29.73;19.03;;;;;;;9.07;55.29;103018.09;5019136;28;20117;-83
2022/03/23 08:45:18;;;;;;;29.43;19.30;;;;;;;9.20;56.17;103014.13;5013058;28;20092;-83
2022/03/23 08:47:44;;;;;;;25.90;16.20;;;;;;;9.38;56.01;103011.97;5013320;28;20022;-83
2022/03/23 08:50:12;;;;;;;27.95;18.17;;;;;;;9.53;55.13;103021.84;5043539;28;20020;-86
2022/03/23 08:52:39;;;;;;;29.77;19.50;;;;;;;9.68;54.62;103021.31;5046195;28;20394;-90
2022/03/23 08:55:05;;;;;;;;;;;;;;;9.83;55.33;103018.22;5038907;28;20469;-87
2022/03/23 08:57:31;;;;;;;28.17;18.02;;;;;;;10.01;55.17;103014.28;5039009;28;19913;-85
2022/03/23 08:59:56;;;;;;;25.60;16.10;;;;;;;10.19;55.03;103024.19;5038609;28;20359;-87
2022/03/23 09:02:21;;;;;;;30.83;19.00;;;;;;;10.37;53.40;103018.50;5036761;28;20033;-83
2022/03/23 09:04:47;;;;;;;27.33;17.83;;;;;;;10.54;52.42;103025.78;5026535;28;20057;-83
2022/03/23 09:07:12;;;;;;;26.07;16.27;;;;;;;10.68;53.25;103020.88;5013107;28;20041;-83
2022/03/23 09:09:37;;;;;;;22.70;13.70;;;;;;;10.89;53.59;103023.88;5025504;28;20073;-84
2022/03/23 09:12:03;;;;;;;22.70;13.30;;;;;;;11.03;53.45;103020.66;5032372;28;20436;-84
2022/03/23 09:14:28;;;;;;;19.73;11.17;;;;;;;11.16;53.39;103022.59;5028853;28;20060;-84
2022/03/23 09:16:53;;;;;;;20.50;11.30;;;;;;;11.32;51.53;103025.47;5015323;28;20520;-84
2022/03/23 09:19:20;;;;;;;23.43;14.00;;;;;;;11.50;48.85;103020.56;5022638;28;20490;-83
2022/03/23 09:21:50;;;;;;;23.58;13.98;;;;;;;11.67;50.62;103017.34;5031652;28;20021;-84
2022/03/23 09:24:16;;;;;;;23.40;14.38;;;;;;;11.83;52.00;103018.44;5031778;28;20474;-83
2022/03/23 09:26:41;;;;;;;;;;;;;;;12.00;51.79;103019.59;5032799;28;20030;-83
2022/03/23 09:29:08;;;;;;;22.20;13.30;;;;;;;12.19;50.78;103015.50;5017815;28;19923;-86
2022/03/23 09:31:34;;;;;;;23.08;13.07;;;;;;;12.43;50.41;103013.19;5013910;28;20134;-84
2022/03/23 09:34:02;;;;;;;25.83;15.70;;;;;;;12.63;45.06;103019.50;5012915;28;20394;-88
2022/03/23 09:39:13;;;;;;;30.95;21.45;;;;;;;12.82;43.99;103014.47;5013162;28;20508;-86
2022/03/23 09:41:40;;;;;;;27.83;18.53;;;;;;;12.96;46.32;103012.00;5012338;28;20057;-86
2022/03/23 09:44:07;;;;;;;27.35;18.13;;;;;;;13.10;43.42;103007.78;5012581;28;20065;-83
2022/03/23 09:46:36;;;;;;;31.40;20.90;;;;;;;13.29;41.96;103010.53;5012543;28;20113;-83
2022/03/23 09:49:06;;;;;;;32.30;20.70;;;;;;;13.47;39.43;103011.59;5013324;28;20033;-83
2022/03/23 09:51:33;;;;;;;28.83;18.77;;;;;;;13.61;43.60;103017.78;5014990;28;20048;-82
2022/03/23 09:53:59;;;;;;;26.13;15.73;;;;;;;13.80;43.28;103010.06;5016185;28;20022;-83
2022/03/23 09:56:24;;;;;;;26.80;17.65;;;;;;;14.00;38.07;103018.88;5016183;28;20033;-84
2022/03/23 09:58:50;;;;;;;28.07;17.80;;;;;;;14.09;41.83;103023.28;5016151;28;20029;-83
2022/03/23 10:01:27;;;;;;;27.43;17.33;;;;;;;14.22;42.64;103018.97;5015971;28;20382;-84
2022/03/23 10:04:23;;;;;;;24.52;15.23;;;;;;;14.40;42.54;103015.56;5016607;28;20030;-83
2022/03/23 10:07:05;;;;;;;22.25;13.00;;;;;;;14.58;41.92;103008.66;5016169;28;20080;-83
2022/03/23 10:09:40;;;;;;;22.15;12.35;;;;;;;14.82;40.08;103023.56;5015904;28;20053;-83
2022/03/23 10:12:23;;;;;;;30.88;19.65;;;;;;;14.91;39.16;103020.09;5015850;28;20052;-85
2022/03/23 10:15:29;;;;;;;30.23;20.60;;;;;;;14.98;37.69;103025.31;5016889;28;20448;-87
2022/03/23 10:18:18;;;;;;;30.15;19.00;;;;;;;15.09;40.64;103019.22;5015819;28;20056;-83
2022/03/23 10:20:46;;;;;;;27.52;18.35;;;;;;;15.22;41.42;103020.09;5015192;28;20030;-81
2022/03/23 10:23:11;;;;;;;24.67;15.20;;;;;;;15.39;41.53;103018.34;5015681;28;20037;-81
2022/03/23 10:25:38;;;;;;;27.87;17.33;;;;;;;15.55;38.94;103016.56;5015044;28;20478;-83
2022/03/23 10:28:13;;;;;;;26.08;16.98;;;;;;;15.66;41.29;103016.56;5015963;28;20037;-83
2022/03/23 10:30:39;;;;;;;26.27;16.98;;;;;;;15.78;39.63;103014.81;5015466;28;20040;-85
2022/03/23 10:33:17;;;;;;;28.50;17.45;;;;;;;15.93;37.43;103009.53;5015244;28;20025;-85
2022/03/23 10:35:42;;;;;;;26.63;16.90;;;;;;;16.02;40.45;103008.63;5015909;28;20038;-86
2022/03/23 10:38:16;;;;;;;24.93;15.80;;;;;;;16.23;37.83;103006.81;5015479;28;20030;-86
2022/03/23 10:40:43;;;;;;;24.63;15.13;;;;;;;16.36;39.47;103006.75;5015584;28;20034;-85
2022/03/23 10:43:11;;;;;;;23.00;13.50;;;;;;;16.54;36.92;102999.66;5016565;28;20037;-85
2022/03/23 10:45:36;;;;;;;23.23;14.27;;;;;;;16.73;39.46;103010.03;5015475;28;20026;-84
2022/03/23 10:48:14;;;;;;;23.10;14.07;;;;;;;16.87;35.47;103005.56;5015185;28;20026;-85
2022/03/23 10:50:54;;;;;;;25.88;15.88;;;;;;;16.97;33.47;103009.03;5015299;28;20022;-86
2022/03/23 10:53:39;;;;;;;25.25;15.77;;;;;;;17.01;36.28;103000.22;5012712;28;20047;-87
2022/03/23 10:56:06;;;;;;;26.60;16.65;;;;;;;17.13;36.30;103000.13;5019231;28;20022;-86
2022/03/23 10:58:32;;;;;;;23.27;14.60;;;;;;;17.24;35.23;102993.94;5015151;28;20049;-84
2022/03/23 11:01:08;;;;;;;21.20;12.52;;;;;;;17.42;36.27;102999.03;5014470;28;20022;-86
2022/03/23 11:03:42;;;;;;;25.95;16.58;;;;;;;17.45;35.09;102992.84;5015253;28;20030;-84
2022/03/23 11:06:12;;;;;;;29.27;18.40;;;;;;;17.44;30.18;102996.38;5015305;28;20061;-86
2022/03/23 11:08:38;;;;;;;30.05;20.27;;;;;;;17.31;29.98;102994.75;5014638;28;20017;-92
2022/03/23 11:16:45;;;;;;;26.98;17.48;;;;;;;17.59;33.84;102992.72;5013163;28;20401;-87
2022/03/23 11:19:11;;;;;;;25.50;16.52;;;;;;;17.72;30.13;102996.09;5014989;28;20030;-87
2022/03/23 11:22:16;;;;;;;29.37;19.83;;;;;;;17.72;33.58;102989.06;5014856;28;20034;-86
2022/03/23 11:24:46;;;;;;;27.20;17.30;;;;;;;17.87;33.46;102992.41;5014965;28;20042;-86
2022/03/23 11:27:17;;;;;;;24.35;15.10;;;;;;;18.08;32.35;102990.44;5014590;28;20021;-86
2022/03/23 11:29:43;;;;;;;23.52;14.73;;;;;;;18.18;33.16;102984.19;5015395;28;20056;-85
2022/03/23 11:32:13;;;;;;;;;;;;;;;18.36;27.38;102989.19;5014834;28;20030;-86
2022/03/23 11:34:40;;;;;;;28.58;18.60;;;;;;;18.22;27.34;102983.25;5014251;28;19956;-86
2022/03/23 11:37:07;;;;;;;27.65;17.73;;;;;;;18.05;27.87;102984.34;5013508;28;20433;-86
2022/03/23 11:39:33;;;;;;;26.13;17.15;;;;;;;18.06;29.00;102985.22;5021480;28;20017;-86
2022/03/23 11:41:59;;;;;;;;;;;;;;;18.22;28.68;102983.25;5034611;28;20085;-86